Time;durP1;ratioP1;P1;durP2;ratioP2;P2;SDS_P1;SDS_P2;PMS_P1;PMS_P2;Temp;Humidity;BMP_temperature;BMP_pressure;BME280_temperature;BME280_humidity;BME280_pressure;Samples;Min_cycle;Max_cycle;Signal;HPM_P1;HPM_P2
2024/01/08 00:00:20;;;;;;;1.60;1.60;;;;;;;1.83;75.96;100642.22;4987876;28;20034;-72
2024/01/08 00:02:45;;;;;;;1.50;1.50;;;;;;;1.75;74.73;100643.84;4982472;28;20118;-74
2024/01/08 00:05:11;;;;;;;1.60;1.60;;;;;;;1.68;73.38;100634.16;4973777;28;20037;-71
2024/01/08 00:07:36;;;;;;;1.50;1.50;;;;;;;1.77;73.63;100643.88;4985721;28;20034;-75
2024/01/08 00:10:01;;;;;;;1.50;1.50;;;;;;;1.67;74.79;100637.63;4989455;28;20033;-74
2024/01/08 00:12:27;;;;;;;1.50;1.50;;;;;;;1.74;74.36;100649.97;4986738;28;20026;-74
2024/01/08 00:14:52;;;;;;;1.40;1.40;;;;;;;1.75;75.57;100648.22;4967570;28;20509;-74
2024/01/08 00:17:18;;;;;;;1.50;1.50;;;;;;;1.74;74.30;100647.34;4987091;28;20026;-74
2024/01/08 00:19:43;;;;;;;1.50;1.50;;;;;;;1.78;74.12;100641.28;4961873;28;20049;-74
2024/01/08 00:22:09;;;;;;;1.70;1.70;;;;;;;1.77;74.45;100639.53;4980106;28;20041;-73
2024/01/08 00:24:34;;;;;;;1.50;1.50;;;;;;;1.82;73.23;100647.44;4984716;28;20105;-74
2024/01/08 00:26:59;;;;;;;1.40;1.40;;;;;;;1.59;74.89;100599.97;4985343;28;20037;-71
2024/01/08 00:29:25;;;;;;;1.42;1.42;;;;;;;1.77;72.78;100647.38;4976239;28;20109;-75
2024/01/08 00:31:50;;;;;;;1.50;1.50;;;;;;;1.77;71.67;100642.16;4988678;28;20559;-73
2024/01/08 00:34:16;;;;;;;1.42;1.42;;;;;;;1.77;73.53;100638.63;4989031;28;20063;-75
2024/01/08 00:36:41;;;;;;;1.40;1.40;;;;;;;1.31;72.66;100548.06;4979705;28;20113;-74
2024/01/08 00:39:09;;;;;;;1.40;1.40;;;;;;;1.85;72.87;100637.88;4989250;28;20038;-73
2024/01/08 00:41:35;;;;;;;1.60;1.60;;;;;;;1.77;72.93;100636.00;4989079;28;20053;-73
2024/01/08 00:44:00;;;;;;;1.42;1.42;;;;;;;1.77;73.39;100631.66;4989252;28;20494;-73
2024/01/08 00:46:26;;;;;;;1.30;1.30;;;;;;;1.80;72.83;100622.94;4989142;28;20486;-74
2024/01/08 00:48:51;;;;;;;1.50;1.50;;;;;;;1.52;72.50;100590.25;4989304;28;20037;-74
2024/01/08 00:51:16;;;;;;;1.50;1.50;;;;;;;1.72;71.88;100635.97;4988425;28;20058;-75
2024/01/08 00:53:42;;;;;;;1.40;1.40;;;;;;;1.73;72.69;100632.47;4985256;28;20026;-73
2024/01/08 00:56:07;;;;;;;1.40;1.40;;;;;;;1.76;73.34;100626.38;4985106;28;20057;-74
2024/01/08 00:58:32;;;;;;;1.50;1.50;;;;;;;1.75;73.63;100624.59;4971996;28;20066;-74
2024/01/08 01:00:58;;;;;;;1.60;1.60;;;;;;;1.84;74.71;100628.25;4965929;28;20041;-74
2024/01/08 01:03:23;;;;;;;1.35;1.35;;;;;;;1.85;74.36;100627.38;4979636;28;20368;-73
2024/01/08 01:05:49;;;;;;;1.50;1.50;;;;;;;1.79;73.82;100627.31;4991356;28;20054;-74
2024/01/08 01:08:15;;;;;;;1.50;1.50;;;;;;;1.81;72.75;100635.19;4987917;28;20478;-72
2024/01/08 01:10:40;;;;;;;1.45;1.45;;;;;;;1.80;74.38;100634.31;4988256;28;20034;-74
2024/01/08 01:13:05;;;;;;;1.45;1.45;;;;;;;1.79;73.01;100634.28;4988600;28;20467;-73
2024/01/08 01:15:31;;;;;;;1.40;1.40;;;;;;;1.60;73.45;100609.56;4974978;28;20038;-74
2024/01/08 01:17:56;;;;;;;1.40;1.40;;;;;;;1.81;73.32;100646.56;4967625;28;20037;-74
2024/01/08 01:20:22;;;;;;;1.50;1.50;;;;;;;1.79;72.77;100648.28;4985000;28;20034;-73
2024/01/08 01:22:48;;;;;;;1.40;1.40;;;;;;;1.80;73.45;100657.03;4986937;28;20037;-74
2024/01/08 01:25:13;;;;;;;1.60;1.60;;;;;;;1.76;74.37;100642.13;4968257;28;20033;-74
2024/01/08 01:27:38;;;;;;;1.48;1.48;;;;;;;1.80;74.23;100650.03;4981417;28;20026;-73
2024/01/08 01:30:04;;;;;;;1.40;1.40;;;;;;;1.82;74.86;100645.69;4977330;28;20085;-73
2024/01/08 01:32:30;;;;;;;1.40;1.40;;;;;;;1.86;75.10;100641.38;4975081;28;20031;-73
2024/01/08 01:34:56;;;;;;;1.50;1.50;;;;;;;1.81;73.69;100648.31;4970055;28;20030;-76
2024/01/08 01:37:22;;;;;;;1.40;1.40;;;;;;;1.56;73.64;100605.19;4985439;28;20129;-74
2024/01/08 01:39:47;;;;;;;1.40;1.40;;;;;;;1.81;73.60;100646.56;4989461;28;20072;-75
2024/01/08 01:42:13;;;;;;;1.40;1.40;;;;;;;1.80;73.15;100654.41;4992544;28;20034;-75
2024/01/08 01:44:38;;;;;;;1.42;1.42;;;;;;;1.56;73.89;100622.63;4978102;28;20572;-73
2024/01/08 01:47:04;;;;;;;1.23;1.23;;;;;;;1.56;73.90;100599.03;4987549;28;20038;-73
2024/01/08 01:49:29;;;;;;;1.45;1.45;;;;;;;1.54;74.61;100604.25;4986971;28;20035;-73
2024/01/08 01:51:56;;;;;;;1.30;1.30;;;;;;;1.85;73.47;100648.34;4967918;28;20034;-74
2024/01/08 01:54:23;;;;;;;1.40;1.40;;;;;;;1.56;74.29;100601.66;4968513;28;20054;-73
2024/01/08 01:56:52;;;;;;;1.40;1.40;;;;;;;1.76;72.89;100643.03;4983657;28;20050;-75
2024/01/08 01:59:18;;;;;;;1.40;1.40;;;;;;;1.69;72.81;100628.06;4987708;28;20109;-76
2024/01/08 02:01:45;;;;;;;1.50;1.50;;;;;;;1.73;74.56;100640.31;4985258;28;20031;-75
2024/01/08 02:04:12;;;;;;;1.50;1.50;;;;;;;1.74;74.05;100641.22;4987768;28;20076;-77
2024/01/08 02:06:40;;;;;;;1.40;1.40;;;;;;;1.81;74.11;100646.56;4986559;28;20112;-76
2024/01/08 02:09:06;;;;;;;1.40;1.40;;;;;;;1.31;74.23;100563.78;4972572;28;20609;-75
2024/01/08 02:11:32;;;;;;;1.50;1.50;;;;;;;1.71;72.96;100641.19;4967319;28;20028;-74
2024/01/08 02:13:57;;;;;;;1.42;1.42;;;;;;;1.66;73.42;100624.50;4969962;28;20548;-75
2024/01/08 02:16:23;;;;;;;1.50;1.50;;;;;;;1.72;73.85;100638.56;4972494;28;20521;-77
2024/01/08 02:18:48;;;;;;;1.35;1.35;;;;;;;1.72;74.31;100645.56;4949515;28;20481;-76
2024/01/08 02:21:15;;;;;;;1.40;1.40;;;;;;;1.68;73.33;100647.25;4981254;28;20042;-76
2024/01/08 02:23:40;;;;;;;1.50;1.50;;;;;;;1.74;72.97;100649.97;4987265;28;20034;-76
2024/01/08 02:26:06;;;;;;;1.33;1.33;;;;;;;1.72;73.85;100641.19;4978352;28;20035;-76
2024/01/08 02:28:32;;;;;;;1.50;1.50;;;;;;;1.73;73.68;100637.72;4991527;28;20017;-74
2024/01/08 02:30:57;;;;;;;1.50;1.50;;;;;;;1.49;73.13;100598.09;5002785;28;20093;-76
2024/01/08 02:33:23;;;;;;;1.50;1.50;;;;;;;1.74;72.18;100631.63;4985703;28;20812;-74
2024/01/08 02:35:48;;;;;;;1.52;1.52;;;;;;;1.80;72.91;100634.31;4987932;28;20121;-76
2024/01/08 02:38:14;;;;;;;1.50;1.50;;;;;;;1.76;73.21;100634.25;4990117;28;20026;-73
2024/01/08 02:40:42;;;;;;;1.50;1.50;;;;;;;1.56;73.87;100599.03;4987543;28;20033;-76
2024/01/08 02:43:07;;;;;;;1.50;1.50;;;;;;;1.84;73.75;100630.88;4970335;28;20093;-76
2024/01/08 02:45:33;;;;;;;1.40;1.40;;;;;;;1.81;72.07;100633.47;4970065;28;20031;-76
2024/01/08 02:47:58;;;;;;;1.60;1.60;;;;;;;1.83;72.08;100629.09;4980822;28;20045;-76
2024/01/08 02:50:23;;;;;;;1.50;1.50;;;;;;;1.87;72.61;100636.16;4983179;28;20379;-76
2024/01/08 02:52:49;;;;;;;1.50;1.50;;;;;;;1.75;73.45;100614.13;4993909;28;20030;-76
2024/01/08 02:55:14;;;;;;;1.48;1.48;;;;;;;1.88;73.57;100629.19;4995824;28;20018;-74
2024/01/08 02:57:40;;;;;;;1.40;1.40;;;;;;;1.84;73.23;100636.13;4987802;28;20042;-75
2024/01/08 03:00:06;;;;;;;1.60;1.60;;;;;;;1.84;72.92;100628.25;4973247;28;20023;-74
2024/01/08 03:02:33;;;;;;;1.50;1.50;;;;;;;1.70;73.49;100606.22;4990520;28;20121;-75
2024/01/08 03:04:58;;;;;;;1.45;1.45;;;;;;;1.91;72.77;100640.56;4987990;28;20041;-76
2024/01/08 03:07:24;;;;;;;1.40;1.40;;;;;;;1.89;73.96;100634.44;4988394;28;20021;-76
2024/01/08 03:09:50;;;;;;;1.50;1.50;;;;;;;1.86;73.84;100638.75;4988481;28;20584;-77
2024/01/08 03:12:15;;;;;;;1.50;1.50;;;;;;;1.91;74.10;100639.69;4976115;28;20490;-76
2024/01/08 03:14:42;;;;;;;1.40;1.40;;;;;;;1.90;73.51;100641.44;4990281;28;20037;-75
2024/01/08 03:17:08;;;;;;;1.60;1.60;;;;;;;1.88;73.03;100642.28;4991546;28;20027;-76
2024/01/08 03:19:33;;;;;;;1.50;1.50;;;;;;;1.87;73.50;100641.41;4999079;28;20038;-75
2024/01/08 03:22:01;;;;;;;1.50;1.50;;;;;;;1.57;72.28;100592.94;4983961;28;20033;-75
2024/01/08 03:24:26;;;;;;;1.40;1.40;;;;;;;1.93;72.67;100646.69;4970163;28;20031;-74
2024/01/08 03:26:51;;;;;;;1.30;1.30;;;;;;;1.91;72.37;100648.41;4989005;28;20088;-75
2024/01/08 03:29:17;;;;;;;1.50;1.50;;;;;;;1.89;73.01;100642.31;4989548;28;20137;-74
2024/01/08 03:31:43;;;;;;;1.40;1.40;;;;;;;1.84;73.27;100644.00;4982975;28;20042;-75
2024/01/08 03:34:08;;;;;;;1.40;1.40;;;;;;;1.97;73.61;100640.66;4988392;28;20022;-74
2024/01/08 03:36:34;;;;;;;1.40;1.40;;;;;;;2.00;73.83;100642.41;4983497;28;20041;-75
2024/01/08 03:39:00;;;;;;;1.50;1.50;;;;;;;1.94;73.75;100635.38;4992062;28;20486;-70
2024/01/08 03:41:25;;;;;;;1.40;1.40;;;;;;;1.98;73.98;100644.13;4991177;28;20125;-75
2024/01/08 03:43:51;;;;;;;1.40;1.40;;;;;;;1.93;73.71;100646.69;4991407;28;20430;-74
2024/01/08 03:46:17;;;;;;;1.40;1.40;;;;;;;1.93;74.14;100630.97;4989795;28;20492;-74
2024/01/08 03:48:42;;;;;;;1.40;1.40;;;;;;;2.00;74.20;100640.69;4987121;28;20570;-74
2024/01/08 03:51:07;;;;;;;1.40;1.40;;;;;;;2.04;74.34;100650.31;4990510;28;20454;-72
2024/01/08 03:53:33;;;;;;;1.38;1.38;;;;;;;1.98;74.93;100645.03;4987388;28;20060;-75
2024/01/08 03:55:58;;;;;;;1.30;1.30;;;;;;;1.97;74.14;100638.03;4987368;28;20062;-75
2024/01/08 03:58:24;;;;;;;1.40;1.40;;;;;;;1.74;74.69;100597.53;4989056;28;20038;-74
2024/01/08 04:00:50;;;;;;;1.40;1.40;;;;;;;2.00;76.13;100643.31;4985722;28;20058;-73
2024/01/08 04:03:15;;;;;;;1.42;1.42;;;;;;;1.94;75.05;100643.25;4988710;28;20104;-74
2024/01/08 04:05:41;;;;;;;1.40;1.40;;;;;;;1.98;74.75;100647.63;4986386;28;20644;-74
2024/01/08 04:08:06;;;;;;;1.40;1.40;;;;;;;1.98;74.25;100650.25;4976856;28;20049;-73
2024/01/08 04:10:31;;;;;;;1.42;1.42;;;;;;;1.95;75.45;100639.75;4989000;28;20037;-73
2024/01/08 04:12:57;;;;;;;1.38;1.38;;;;;;;1.99;74.53;100646.78;4989341;28;20109;-73
2024/01/08 04:15:22;;;;;;;1.50;1.50;;;;;;;2.01;75.40;100650.28;4986519;28;20131;-74
2024/01/08 04:17:48;;;;;;;1.50;1.50;;;;;;;1.77;75.20;100615.91;4989801;28;20037;-74
2024/01/08 04:20:13;;;;;;;1.42;1.42;;;;;;;2.03;75.60;100653.81;4988799;28;20065;-74
2024/01/08 04:22:42;;;;;;;1.40;1.40;;;;;;;1.94;75.67;100658.97;4972657;28;20391;-73
2024/01/08 04:25:07;;;;;;;1.40;1.40;;;;;;;1.89;75.18;100629.19;4970279;28;20541;-66
2024/01/08 04:27:33;;;;;;;1.50;1.50;;;;;;;2.07;75.56;100655.63;4982975;28;20173;-65
2024/01/08 04:29:58;;;;;;;1.50;1.50;;;;;;;2.12;76.48;100658.31;4988100;28;20473;-65
2024/01/08 04:32:24;;;;;;;1.40;1.40;;;;;;;1.64;75.88;100573.78;4983286;28;20034;-65
2024/01/08 04:34:49;;;;;;;1.25;1.25;;;;;;;1.92;75.63;100620.47;4986379;28;20030;-66
2024/01/08 04:37:14;;;;;;;1.30;1.30;;;;;;;1.92;76.34;100626.59;4987698;28;20030;-66
2024/01/08 04:39:40;;;;;;;1.30;1.30;;;;;;;2.09;76.33;100659.13;4986020;28;20498;-66
2024/01/08 04:42:05;;;;;;;1.50;1.50;;;;;;;2.05;76.15;100656.47;4989459;28;20030;-66
2024/01/08 04:44:32;;;;;;;1.30;1.30;;;;;;;2.00;76.95;100655.53;4990189;28;20022;-67
2024/01/08 04:46:58;;;;;;;1.60;1.60;;;;;;;2.03;76.47;100635.47;4989094;28;20112;-66
2024/01/08 04:49:23;;;;;;;1.50;1.50;;;;;;;2.08;76.99;100667.88;4995268;28;20038;-66
2024/01/08 04:51:50;;;;;;;1.40;1.40;;;;;;;2.11;76.97;100657.41;4990832;28;20141;-66
2024/01/08 04:54:16;;;;;;;1.40;1.40;;;;;;;1.91;76.85;100621.34;4992620;28;20072;-66
2024/01/08 04:56:41;;;;;;;1.30;1.30;;;;;;;2.17;77.26;100654.88;4978849;28;20057;-66
2024/01/08 04:59:07;;;;;;;1.40;1.40;;;;;;;2.12;75.69;100659.19;4964936;28;20038;-66
2024/01/08 05:01:37;;;;;;;1.35;1.35;;;;;;;1.75;75.71;100601.91;4950929;28;20051;-66
2024/01/08 05:04:03;;;;;;;1.42;1.42;;;;;;;1.85;76.16;100606.41;4962608;28;20502;-66
2024/01/08 05:06:29;;;;;;;1.50;1.50;;;;;;;2.07;75.99;100647.75;4968638;28;20106;-66
2024/01/08 05:08:54;;;;;;;1.40;1.40;;;;;;;2.10;75.17;100655.66;4965618;28;20104;-66
2024/01/08 05:11:20;;;;;;;1.20;1.20;;;;;;;2.14;74.57;100657.44;4969645;28;20030;-66
2024/01/08 05:13:45;;;;;;;1.40;1.40;;;;;;;2.11;75.25;100657.41;4971937;28;20023;-66
2024/01/08 05:16:11;;;;;;;1.40;1.40;;;;;;;2.13;74.72;100653.06;4971189;28;20030;-65
2024/01/08 05:18:36;;;;;;;1.50;1.50;;;;;;;1.62;73.78;100573.78;4968788;28;20022;-66
2024/01/08 05:21:03;;;;;;;1.40;1.40;;;;;;;2.10;74.51;100667.88;4966787;28;20519;-65
2024/01/08 05:23:29;;;;;;;1.35;1.35;;;;;;;2.16;75.03;100665.31;4966865;28;20035;-65
2024/01/08 05:25:58;;;;;;;1.40;1.40;;;;;;;2.05;73.87;100666.94;4963648;28;20690;-66
2024/01/08 05:28:25;;;;;;;1.40;1.40;;;;;;;2.16;73.83;100676.72;4968225;28;20490;-66
2024/01/08 05:30:50;;;;;;;1.42;1.42;;;;;;;2.14;74.99;100672.31;4957154;28;20031;-66
2024/01/08 05:33:16;;;;;;;1.50;1.50;;;;;;;2.15;75.57;100669.72;4948727;28;20042;-66
2024/01/08 05:35:41;;;;;;;1.50;1.50;;;;;;;1.88;74.52;100632.66;4965606;28;20030;-74
2024/01/08 05:38:07;;;;;;;1.40;1.40;;;;;;;2.11;73.44;100675.78;4969526;28;20033;-74
2024/01/08 05:40:32;;;;;;;1.50;1.50;;;;;;;2.14;73.55;100678.44;4971348;28;20050;-75
2024/01/08 05:42:57;;;;;;;1.33;1.33;;;;;;;2.13;74.42;100681.94;4957099;28;20034;-74
2024/01/08 05:45:23;;;;;;;1.30;1.30;;;;;;;2.10;73.02;100681.00;4952035;28;20531;-75
2024/01/08 05:47:50;;;;;;;1.50;1.50;;;;;;;1.79;72.98;100626.44;4978265;28;20073;-75
2024/01/08 05:50:17;;;;;;;1.30;1.30;;;;;;;2.12;73.19;100679.28;4967913;28;20034;-73
2024/01/08 05:52:45;;;;;;;1.27;1.27;;;;;;;2.11;73.24;100688.91;4967890;28;20030;-73
2024/01/08 05:55:14;;;;;;;1.40;1.40;;;;;;;2.09;72.51;100680.13;4967677;28;20106;-74
2024/01/08 05:57:39;;;;;;;1.45;1.45;;;;;;;2.15;72.98;100689.81;4946570;28;20039;-72
2024/01/08 06:00:06;;;;;;;1.50;1.50;;;;;;;2.02;73.27;100657.31;4947880;29;20091;-74
2024/01/08 06:02:31;;;;;;;1.35;1.35;;;;;;;2.10;72.24;100695.00;4945329;29;20034;-73
2024/01/08 06:04:57;;;;;;;1.60;1.60;;;;;;;2.08;72.81;100685.34;4947936;29;20031;-75
2024/01/08 06:07:22;;;;;;;1.40;1.40;;;;;;;2.09;72.18;100695.84;4941361;29;20060;-75
2024/01/08 06:09:48;;;;;;;1.35;1.35;;;;;;;2.11;71.59;100699.38;4947997;29;20138;-77
2024/01/08 06:12:13;;;;;;;1.40;1.40;;;;;;;1.85;72.16;100655.34;4948227;29;20047;-75
2024/01/08 06:14:41;;;;;;;1.40;1.40;;;;;;;2.02;71.54;100680.94;4946356;29;20082;-74
2024/01/08 06:17:07;;;;;;;1.30;1.30;;;;;;;2.06;71.36;100682.72;4928609;29;20039;-76
2024/01/08 06:19:33;;;;;;;1.45;1.45;;;;;;;2.02;70.74;100682.66;4944610;29;20019;-76
2024/01/08 06:21:59;;;;;;;1.50;1.50;;;;;;;1.80;71.37;100650.03;4948845;29;20031;-76
2024/01/08 06:24:24;;;;;;;1.33;1.33;;;;;;;2.00;69.89;100687.91;4947242;29;20100;-76
2024/01/08 06:26:49;;;;;;;1.30;1.30;;;;;;;2.00;71.32;100682.66;4947073;29;20110;-75
2024/01/08 06:29:16;;;;;;;1.48;1.48;;;;;;;1.89;70.90;100644.94;4949139;29;20082;-76
2024/01/08 06:31:41;;;;;;;1.40;1.40;;;;;;;2.07;71.28;100686.22;4928433;29;20126;-75
2024/01/08 06:34:06;;;;;;;1.50;1.50;;;;;;;2.04;70.54;100687.06;4955185;28;20125;-76
2024/01/08 06:36:34;;;;;;;1.40;1.40;;;;;;;2.02;71.05;100690.53;4965826;28;20487;-75
2024/01/08 06:38:59;;;;;;;1.40;1.40;;;;;;;2.06;71.66;100689.72;4955942;28;20038;-75
2024/01/08 06:41:25;;;;;;;1.50;1.50;;;;;;;2.07;71.50;100692.38;4948559;29;20047;-75
2024/01/08 06:43:50;;;;;;;1.35;1.35;;;;;;;2.03;72.04;100697.53;4945949;29;20033;-66
2024/01/08 06:46:17;;;;;;;1.40;1.40;;;;;;;1.97;71.27;100690.47;4928760;28;20036;-73
2024/01/08 06:48:43;;;;;;;1.42;1.42;;;;;;;2.02;70.97;100701.03;4944398;28;20061;-74
2024/01/08 06:51:08;;;;;;;1.40;1.40;;;;;;;2.06;72.28;100705.47;4923664;28;20031;-74
2024/01/08 06:53:34;;;;;;;1.40;1.40;;;;;;;1.83;71.85;100660.56;4946498;28;20260;-74
2024/01/08 06:55:59;;;;;;;1.48;1.48;;;;;;;2.01;71.99;100707.16;4945295;28;20132;-76
2024/01/08 06:58:25;;;;;;;1.60;1.60;;;;;;;2.00;72.45;100698.38;4944929;29;20746;-72
2024/01/08 07:00:50;;;;;;;1.50;1.50;;;;;;;1.99;71.59;100701.88;4945195;28;20065;-75
2024/01/08 07:03:17;;;;;;;1.23;1.23;;;;;;;2.00;70.81;100701.00;4929856;29;20031;-75
2024/01/08 07:05:42;;;;;;;1.40;1.40;;;;;;;1.56;71.34;100634.00;4940168;29;20699;-76
2024/01/08 07:08:09;;;;;;;1.42;1.42;;;;;;;1.60;70.94;100662.00;4945943;29;20173;-76
2024/01/08 07:10:34;;;;;;;1.50;1.50;;;;;;;1.98;72.77;100707.97;4948487;28;20880;-75
2024/01/08 07:13:00;;;;;;;1.50;1.50;;;;;;;2.08;71.93;100714.22;4943513;29;20031;-75
2024/01/08 07:15:39;;;;;;;1.50;1.50;;;;;;;2.09;73.40;100711.59;4948323;29;20138;-75
2024/01/08 07:18:05;;;;;;;1.48;1.48;;;;;;;2.10;72.93;100708.13;4948450;29;20041;-74
2024/01/08 07:20:30;;;;;;;1.30;1.30;;;;;;;2.09;73.19;100705.50;4942826;29;20023;-73
2024/01/08 07:22:56;;;;;;;1.40;1.40;;;;;;;1.83;71.95;100673.69;4943833;29;20039;-76
2024/01/08 07:25:22;;;;;;;1.52;1.52;;;;;;;1.82;71.96;100685.03;4947747;29;20023;-76
2024/01/08 07:27:47;;;;;;;1.40;1.40;;;;;;;2.08;72.57;100720.34;4948362;29;20556;-74
2024/01/08 07:30:13;;;;;;;1.33;1.33;;;;;;;2.06;73.18;100711.56;4945801;29;20485;-76
2024/01/08 07:32:39;;;;;;;1.35;1.35;;;;;;;1.86;73.21;100678.09;4942998;28;20042;-74
2024/01/08 07:35:04;;;;;;;1.50;1.50;;;;;;;1.84;72.99;100692.94;4946979;28;20035;-76
2024/01/08 07:37:30;;;;;;;1.40;1.40;;;;;;;2.05;73.16;100729.91;4949298;28;20023;-69
2024/01/08 07:39:55;;;;;;;1.30;1.30;;;;;;;1.74;72.96;100683.16;4946659;29;20047;-75
2024/01/08 07:42:21;;;;;;;1.30;1.30;;;;;;;1.96;72.41;100730.66;4946581;28;20023;-76
2024/01/08 07:44:46;;;;;;;1.40;1.40;;;;;;;2.02;72.99;100737.75;4943033;29;20016;-76
2024/01/08 07:47:11;;;;;;;1.40;1.40;;;;;;;2.00;73.78;100737.72;4948708;29;20034;-75
2024/01/08 07:49:37;;;;;;;1.40;1.40;;;;;;;2.04;74.48;100739.53;4933256;29;20694;-75
2024/01/08 07:52:03;;;;;;;1.40;1.40;;;;;;;1.98;74.59;100723.72;4949252;29;20027;-75
2024/01/08 07:54:28;;;;;;;1.40;1.40;;;;;;;2.01;72.56;100729.00;4942996;28;20622;-73
2024/01/08 07:56:53;;;;;;;1.50;1.50;;;;;;;1.97;72.64;100732.47;4933730;29;20104;-74
2024/01/08 07:59:19;;;;;;;1.50;1.50;;;;;;;1.67;71.91;100689.19;4950790;29;20115;-74
2024/01/08 08:01:44;;;;;;;1.33;1.33;;;;;;;1.92;72.43;100734.13;4948149;29;20042;-75
2024/01/08 08:04:09;;;;;;;1.40;1.40;;;;;;;1.92;71.66;100734.13;4947967;29;20054;-74
2024/01/08 08:06:35;;;;;;;1.35;1.35;;;;;;;1.94;70.48;100736.78;4948381;29;20091;-74
2024/01/08 08:09:01;;;;;;;1.50;1.50;;;;;;;1.67;71.09;100700.56;4919700;29;20038;-70
2024/01/08 08:11:27;;;;;;;1.60;1.60;;;;;;;1.92;70.74;100742.00;4934440;29;20090;-73
2024/01/08 08:13:53;;;;;;;1.50;1.50;;;;;;;1.98;70.72;100739.44;4944869;29;20102;-76
2024/01/08 08:16:18;;;;;;;1.40;1.40;;;;;;;1.94;69.90;100735.03;4952262;28;20038;-76
2024/01/08 08:18:44;;;;;;;1.40;1.40;;;;;;;2.02;70.96;100743.88;4949259;29;20039;-76
2024/01/08 08:21:10;;;;;;;1.48;1.48;;;;;;;2.01;71.16;100734.25;4949805;29;20548;-75
2024/01/08 08:23:35;;;;;;;1.40;1.40;;;;;;;1.62;70.79;100660.28;4948330;29;20019;-73
2024/01/08 08:26:02;;;;;;;1.40;1.40;;;;;;;1.77;70.84;100686.72;4929274;29;20031;-72
2024/01/08 08:28:28;;;;;;;1.30;1.30;;;;;;;2.05;71.14;100720.31;4934312;28;20031;-74
2024/01/08 08:30:54;;;;;;;1.40;1.40;;;;;;;2.03;70.28;100743.00;4949531;28;20031;-73
2024/01/08 08:33:20;;;;;;;1.50;1.50;;;;;;;1.76;68.80;100705.94;4948834;29;20046;-74
2024/01/08 08:35:45;;;;;;;1.40;1.40;;;;;;;2.02;68.93;100740.38;4944610;29;20061;-74
2024/01/08 08:38:10;;;;;;;1.50;1.50;;;;;;;2.03;69.41;100748.25;4951106;28;20087;-74
2024/01/08 08:40:36;;;;;;;1.25;1.25;;;;;;;1.81;69.35;100708.63;4949206;28;20087;-74
2024/01/08 08:43:01;;;;;;;1.25;1.25;;;;;;;1.77;69.35;100726.06;4949227;28;20091;-73
2024/01/08 08:45:28;;;;;;;1.35;1.35;;;;;;;1.99;68.50;100759.59;4931180;29;20027;-74
2024/01/08 08:47:53;;;;;;;1.40;1.40;;;;;;;1.79;68.14;100728.69;4941377;29;20024;-73
2024/01/08 08:50:19;;;;;;;1.30;1.30;;;;;;;2.08;68.27;100771.94;4949809;29;20027;-74
2024/01/08 08:52:44;;;;;;;1.50;1.50;;;;;;;1.98;67.43;100765.69;4957736;28;20038;-73
2024/01/08 08:55:10;;;;;;;1.23;1.23;;;;;;;2.06;67.11;100768.44;4936202;28;20054;-74
2024/01/08 08:57:38;;;;;;;1.20;1.20;;;;;;;2.05;67.92;100778.03;4965045;28;20051;-74
2024/01/08 09:00:07;;;;;;;1.45;1.45;;;;;;;2.09;68.13;100769.31;4945014;28;20075;-74
2024/01/08 09:02:32;;;;;;;1.50;1.50;;;;;;;2.07;68.54;100775.44;4967563;28;20411;-74
2024/01/08 09:04:58;;;;;;;1.40;1.40;;;;;;;2.08;66.71;100779.81;4968831;28;20039;-66
2024/01/08 09:07:23;;;;;;;1.50;1.50;;;;;;;2.06;67.17;100774.53;4968334;28;20031;-65
2024/01/08 09:09:49;;;;;;;1.27;1.27;;;;;;;1.61;67.33;100705.72;4966839;28;20035;-66
2024/01/08 09:12:15;;;;;;;1.38;1.38;;;;;;;2.11;67.33;100783.34;4969220;28;20039;-66
2024/01/08 09:14:41;;;;;;;1.30;1.30;;;;;;;1.89;65.82;100755.09;4968880;28;20046;-66
2024/01/08 09:17:07;;;;;;;1.40;1.40;;;;;;;2.10;66.18;100796.44;4955425;28;20055;-66
2024/01/08 09:19:34;;;;;;;1.40;1.40;;;;;;;2.10;65.38;100791.19;4973618;28;20088;-65
2024/01/08 09:22:00;;;;;;;1.23;1.23;;;;;;;2.18;65.05;100794.81;4966332;28;20125;-65
2024/01/08 09:24:25;;;;;;;1.40;1.40;;;;;;;1.97;64.10;100765.66;4968498;28;20906;-65
2024/01/08 09:26:50;;;;;;;1.40;1.40;;;;;;;2.13;64.30;100796.50;4943250;28;20043;-66
2024/01/08 09:29:16;;;;;;;1.40;1.40;;;;;;;1.92;64.41;100749.88;4966982;28;20105;-66
2024/01/08 09:31:41;;;;;;;1.30;1.30;;;;;;;2.11;63.30;100798.25;4962746;28;20062;-65
2024/01/08 09:34:07;;;;;;;1.35;1.35;;;;;;;2.20;64.42;100793.97;4967891;28;20146;-66
2024/01/08 09:36:32;;;;;;;1.50;1.50;;;;;;;1.96;62.52;100767.41;4968302;28;20043;-66
2024/01/08 09:38:58;;;;;;;1.35;1.35;;;;;;;2.22;64.06;100808.00;4951031;28;20027;-66
2024/01/08 09:41:23;;;;;;;1.40;1.40;;;;;;;2.32;63.90;100801.13;4965787;28;20027;-66
2024/01/08 09:43:50;;;;;;;1.40;1.40;;;;;;;2.29;64.34;100809.84;4956321;28;20123;-66
2024/01/08 09:46:25;;;;;;;1.33;1.33;;;;;;;2.36;65.46;100810.78;4949525;29;20067;-66
2024/01/08 09:48:52;;;;;;;1.30;1.30;;;;;;;2.05;64.90;100764.03;4934883;28;20131;-66
2024/01/08 09:51:18;;;;;;;1.40;1.40;;;;;;;2.28;63.47;100794.97;4949903;29;20031;-66
2024/01/08 09:53:45;;;;;;;1.40;1.40;;;;;;;2.44;63.61;100809.13;4932165;29;20037;-65
2024/01/08 09:56:13;;;;;;;1.30;1.30;;;;;;;2.64;64.10;100805.91;4944727;28;20074;-66
2024/01/08 09:58:39;;;;;;;1.30;1.30;;;;;;;2.58;62.85;100803.22;4939023;29;20043;-65
2024/01/08 10:01:04;;;;;;;1.40;1.40;;;;;;;2.63;63.92;100806.78;4949014;29;20035;-65
2024/01/08 10:03:30;;;;;;;1.30;1.30;;;;;;;2.65;63.25;100805.03;4948831;29;20617;-66
2024/01/08 10:05:56;;;;;;;1.30;1.30;;;;;;;2.75;63.94;100799.91;4937751;29;20031;-66
2024/01/08 10:08:22;;;;;;;1.30;1.30;;;;;;;2.69;63.54;100805.94;4940923;29;20063;-65
2024/01/08 10:10:48;;;;;;;1.20;1.20;;;;;;;2.83;64.46;100798.25;4922483;29;20119;-66
2024/01/08 10:13:14;;;;;;;1.40;1.40;;;;;;;2.97;64.58;100791.38;4912535;29;20031;-66
2024/01/08 10:15:46;;;;;;;1.30;1.30;;;;;;;2.96;63.84;100797.50;4931172;29;20026;-75
2024/01/08 10:18:16;;;;;;;1.40;1.40;;;;;;;2.99;63.78;100806.28;4949410;29;20038;-74
2024/01/08 10:20:42;;;;;;;1.40;1.40;;;;;;;2.98;63.51;100795.78;4951427;29;20510;-73
2024/01/08 10:23:09;;;;;;;1.40;1.40;;;;;;;2.80;63.45;100783.31;4947733;28;20751;-74
2024/01/08 10:25:38;;;;;;;1.20;1.20;;;;;;;2.83;64.18;100790.34;4946010;29;20114;-73
2024/01/08 10:28:10;;;;;;;1.30;1.30;;;;;;;2.80;61.68;100771.94;4947912;29;20039;-73
2024/01/08 10:30:36;;;;;;;1.30;1.30;;;;;;;2.86;62.24;100786.03;4948082;29;20058;-74
2024/01/08 10:33:01;;;;;;;1.38;1.38;;;;;;;2.76;63.05;100781.53;4932977;29;20058;-73
2024/01/08 10:35:30;;;;;;;1.40;1.40;;;;;;;2.92;63.06;100786.06;4935558;29;20413;-74
2024/01/08 10:38:00;;;;;;;1.30;1.30;;;;;;;2.61;62.26;100737.59;4928397;29;20682;-75
2024/01/08 10:40:29;;;;;;;1.33;1.33;;;;;;;2.71;63.12;100741.19;4931344;29;20066;-75
2024/01/08 10:42:54;;;;;;;1.40;1.40;;;;;;;3.09;62.69;100788.88;4929885;29;20044;-75
2024/01/08 10:45:21;;;;;;;1.40;1.40;;;;;;;3.14;62.03;100784.53;4930253;29;20036;-74
2024/01/08 10:48:01;;;;;;;1.20;1.20;;;;;;;3.21;63.56;100784.63;4929477;29;20660;-74
2024/01/08 10:50:28;;;;;;;1.20;1.20;;;;;;;2.71;63.28;100714.94;4947556;28;20031;-75
2024/01/08 10:52:57;;;;;;;1.13;1.13;;;;;;;3.08;59.62;100787.97;4932032;29;20377;-73
2024/01/08 10:55:23;;;;;;;1.40;1.40;;;;;;;2.62;59.31;100718.34;4947228;28;20559;-75
2024/01/08 10:57:58;;;;;;;1.30;1.30;;;;;;;3.04;60.00;100787.94;4948679;28;20070;-72
2024/01/08 11:00:24;;;;;;;1.30;1.30;;;;;;;3.01;61.13;100783.56;4929932;29;20211;-74
2024/01/08 11:02:51;;;;;;;1.40;1.40;;;;;;;2.95;60.58;100787.88;4953945;28;20506;-74
2024/01/08 11:05:19;;;;;;;1.20;1.20;;;;;;;2.87;61.48;100779.88;4968251;28;20023;-73
2024/01/08 11:07:48;;;;;;;1.20;1.20;;;;;;;2.86;60.67;100778.13;4969675;28;20035;-74
2024/01/08 11:10:15;;;;;;;1.20;1.20;;;;;;;2.88;61.51;100765.00;4934750;29;20031;-74
2024/01/08 11:12:50;;;;;;;1.30;1.30;;;;;;;2.73;59.24;100756.09;4952631;29;20070;-74
2024/01/08 11:15:15;;;;;;;1.20;1.20;;;;;;;2.70;60.93;100771.81;4951005;29;20035;-74
2024/01/08 11:17:50;;;;;;;1.30;1.30;;;;;;;2.73;61.40;100773.63;4941147;29;20034;-75
2024/01/08 11:20:33;;;;;;;1.13;1.13;;;;;;;2.67;61.09;100771.78;4934443;29;20043;-75
2024/01/08 11:23:01;;;;;;;1.30;1.30;;;;;;;2.68;61.86;100772.69;4933898;28;20069;-73
2024/01/08 11:25:26;;;;;;;1.50;1.50;;;;;;;2.81;62.53;100768.44;4948607;29;20047;-73
2024/01/08 11:27:57;;;;;;;1.40;1.40;;;;;;;2.55;61.88;100745.41;4950276;28;20073;-75